sensor_id;sensor_type;location;lat;lon;timestamp;P1;durP1;ratioP1;P2;durP2;ratioP2
27127;SDS011;14660;49.008;8.390;2023-03-31T00:00:52;4.13;;;1.10;;
27127;SDS011;14660;49.008;8.390;2023-03-31T00:03:23;5.53;;;1.80;;
27127;SDS011;14660;49.008;8.390;2023-03-31T00:05:57;4.47;;;1.63;;
27127;SDS011;14660;49.008;8.390;2023-03-31T00:08:25;2.38;;;1.20;;
27127;SDS011;14660;49.008;8.390;2023-03-31T00:10:58;6.82;;;1.33;;
27127;SDS011;14660;49.008;8.390;2023-03-31T00:13:25;1.92;;;1.10;;
27127;SDS011;14660;49.008;8.390;2023-03-31T00:15:57;3.95;;;1.38;;
27127;SDS011;14660;49.008;8.390;2023-03-31T00:18:25;4.13;;;1.50;;
27127;SDS011;14660;49.008;8.390;2023-03-31T00:20:53;4.53;;;1.25;;
27127;SDS011;14660;49.008;8.390;2023-03-31T00:23:19;3.05;;;1.67;;
27127;SDS011;14660;49.008;8.390;2023-03-31T00:25:53;3.85;;;1.55;;
27127;SDS011;14660;49.008;8.390;2023-03-31T00:28:21;9.20;;;1.73;;
27127;SDS011;14660;49.008;8.390;2023-03-31T00:30:48;5.47;;;2.38;;
27127;SDS011;14660;49.008;8.390;2023-03-31T00:33:15;3.95;;;1.58;;
27127;SDS011;14660;49.008;8.390;2023-03-31T00:35:42;3.00;;;1.02;;
27127;SDS011;14660;49.008;8.390;2023-03-31T00:38:11;4.63;;;1.90;;
27127;SDS011;14660;49.008;8.390;2023-03-31T00:40:43;4.88;;;1.58;;
27127;SDS011;14660;49.008;8.390;2023-03-31T00:43:33;3.83;;;1.30;;
27127;SDS011;14660;49.008;8.390;2023-03-31T00:48:53;6.25;;;2.20;;
27127;SDS011;14660;49.008;8.390;2023-03-31T00:51:25;6.55;;;1.95;;
27127;SDS011;14660;49.008;8.390;2023-03-31T00:53:59;4.03;;;1.23;;
27127;SDS011;14660;49.008;8.390;2023-03-31T00:59:01;8.07;;;2.00;;
27127;SDS011;14660;49.008;8.390;2023-03-31T01:01:30;12.13;;;1.90;;
27127;SDS011;14660;49.008;8.390;2023-03-31T01:03:56;7.30;;;1.50;;
27127;SDS011;14660;49.008;8.390;2023-03-31T01:06:24;2.42;;;1.23;;
27127;SDS011;14660;49.008;8.390;2023-03-31T01:08:54;3.53;;;0.93;;
27127;SDS011;14660;49.008;8.390;2023-03-31T01:11:23;3.67;;;0.90;;
27127;SDS011;14660;49.008;8.390;2023-03-31T01:13:53;6.43;;;1.83;;
27127;SDS011;14660;49.008;8.390;2023-03-31T01:16:21;3.35;;;1.40;;
27127;SDS011;14660;49.008;8.390;2023-03-31T01:18:48;3.03;;;1.10;;
27127;SDS011;14660;49.008;8.390;2023-03-31T02:00:19;6.13;;;1.92;;
27127;SDS011;14660;49.008;8.390;2023-03-31T02:05:52;6.28;;;2.03;;
27127;SDS011;14660;49.008;8.390;2023-03-31T02:11:10;4.97;;;1.27;;
27127;SDS011;14660;49.008;8.390;2023-03-31T02:13:40;3.00;;;1.25;;
27127;SDS011;14660;49.008;8.390;2023-03-31T02:16:13;3.25;;;1.55;;
27127;SDS011;14660;49.008;8.390;2023-03-31T02:19:00;7.07;;;1.88;;
27127;SDS011;14660;49.008;8.390;2023-03-31T02:21:35;4.00;;;1.70;;
27127;SDS011;14660;49.008;8.390;2023-03-31T02:24:06;4.32;;;1.85;;
27127;SDS011;14660;49.008;8.390;2023-03-31T02:26:48;4.50;;;1.48;;
27127;SDS011;14660;49.008;8.390;2023-03-31T02:29:20;5.80;;;1.63;;
27127;SDS011;14660;49.008;8.390;2023-03-31T02:34:50;6.30;;;1.50;;
27127;SDS011;14660;49.008;8.390;2023-03-31T02:37:17;6.57;;;1.90;;
27127;SDS011;14660;49.008;8.390;2023-03-31T02:39:45;7.05;;;1.80;;
27127;SDS011;14660;49.008;8.390;2023-03-31T02:42:16;3.30;;;1.98;;
27127;SDS011;14660;49.008;8.390;2023-03-31T02:44:47;9.20;;;2.50;;
27127;SDS011;14660;49.008;8.390;2023-03-31T02:47:14;6.30;;;2.10;;
27127;SDS011;14660;49.008;8.390;2023-03-31T02:49:47;4.28;;;2.10;;
27127;SDS011;14660;49.008;8.390;2023-03-31T02:55:28;5.40;;;1.55;;
27127;SDS011;14660;49.008;8.390;2023-03-31T03:13:08;4.78;;;1.70;;
27127;SDS011;14660;49.008;8.390;2023-03-31T03:16:04;7.18;;;1.80;;
27127;SDS011;14660;49.008;8.390;2023-03-31T03:18:33;8.38;;;3.08;;
27127;SDS011;14660;49.008;8.390;2023-03-31T03:21:00;5.03;;;2.20;;
27127;SDS011;14660;49.008;8.390;2023-03-31T03:23:27;5.85;;;1.90;;
27127;SDS011;14660;49.008;8.390;2023-03-31T03:25:53;4.13;;;1.88;;
27127;SDS011;14660;49.008;8.390;2023-03-31T03:28:20;7.15;;;1.83;;
27127;SDS011;14660;49.008;8.390;2023-03-31T03:30:47;6.65;;;2.47;;
27127;SDS011;14660;49.008;8.390;2023-03-31T03:33:13;7.30;;;2.47;;
27127;SDS011;14660;49.008;8.390;2023-03-31T03:35:42;6.35;;;2.20;;
27127;SDS011;14660;49.008;8.390;2023-03-31T03:38:10;12.70;;;4.32;;
27127;SDS011;14660;49.008;8.390;2023-03-31T03:40:36;7.05;;;3.55;;
27127;SDS011;14660;49.008;8.390;2023-03-31T03:43:04;6.30;;;2.60;;
27127;SDS011;14660;49.008;8.390;2023-03-31T03:45:31;6.57;;;2.30;;
27127;SDS011;14660;49.008;8.390;2023-03-31T03:47:57;6.55;;;2.40;;
27127;SDS011;14660;49.008;8.390;2023-03-31T03:50:23;11.30;;;3.22;;
27127;SDS011;14660;49.008;8.390;2023-03-31T03:52:50;5.80;;;2.88;;
27127;SDS011;14660;49.008;8.390;2023-03-31T03:55:17;10.95;;;2.95;;
27127;SDS011;14660;49.008;8.390;2023-03-31T03:57:44;9.13;;;4.25;;
27127;SDS011;14660;49.008;8.390;2023-03-31T04:00:11;5.60;;;2.40;;
27127;SDS011;14660;49.008;8.390;2023-03-31T04:02:38;7.60;;;2.60;;
27127;SDS011;14660;49.008;8.390;2023-03-31T04:05:05;2.67;;;1.77;;
27127;SDS011;14660;49.008;8.390;2023-03-31T04:07:32;3.97;;;2.58;;
27127;SDS011;14660;49.008;8.390;2023-03-31T04:09:59;8.82;;;2.00;;
27127;SDS011;14660;49.008;8.390;2023-03-31T04:12:26;3.50;;;1.90;;
27127;SDS011;14660;49.008;8.390;2023-03-31T04:14:52;11.25;;;2.22;;
27127;SDS011;14660;49.008;8.390;2023-03-31T04:17:20;4.75;;;1.85;;
27127;SDS011;14660;49.008;8.390;2023-03-31T04:20:02;7.35;;;2.40;;
27127;SDS011;14660;49.008;8.390;2023-03-31T04:22:31;4.10;;;2.08;;
27127;SDS011;14660;49.008;8.390;2023-03-31T04:25:06;8.68;;;2.65;;
27127;SDS011;14660;49.008;8.390;2023-03-31T04:27:46;9.23;;;2.70;;
27127;SDS011;14660;49.008;8.390;2023-03-31T04:30:24;4.60;;;2.92;;
27127;SDS011;14660;49.008;8.390;2023-03-31T04:32:59;7.68;;;2.72;;
27127;SDS011;14660;49.008;8.390;2023-03-31T04:35:28;6.05;;;2.33;;
27127;SDS011;14660;49.008;8.390;2023-03-31T04:38:17;7.93;;;2.20;;
27127;SDS011;14660;49.008;8.390;2023-03-31T04:40:47;7.10;;;2.08;;
27127;SDS011;14660;49.008;8.390;2023-03-31T04:43:16;9.75;;;3.47;;
27127;SDS011;14660;49.008;8.390;2023-03-31T04:45:43;7.38;;;2.88;;
27127;SDS011;14660;49.008;8.390;2023-03-31T04:48:10;5.15;;;2.05;;
27127;SDS011;14660;49.008;8.390;2023-03-31T04:50:37;6.50;;;1.80;;
27127;SDS011;14660;49.008;8.390;2023-03-31T04:53:05;8.60;;;2.50;;
27127;SDS011;14660;49.008;8.390;2023-03-31T04:55:30;9.38;;;2.30;;
27127;SDS011;14660;49.008;8.390;2023-03-31T04:57:58;4.50;;;2.60;;
27127;SDS011;14660;49.008;8.390;2023-03-31T05:00:25;4.20;;;2.45;;
27127;SDS011;14660;49.008;8.390;2023-03-31T05:02:54;6.32;;;2.42;;
27127;SDS011;14660;49.008;8.390;2023-03-31T05:05:22;4.47;;;2.17;;
27127;SDS011;14660;49.008;8.390;2023-03-31T05:07:49;5.25;;;3.05;;
27127;SDS011;14660;49.008;8.390;2023-03-31T05:10:15;11.18;;;3.13;;
27127;SDS011;14660;49.008;8.390;2023-03-31T05:12:42;7.43;;;2.58;;
27127;SDS011;14660;49.008;8.390;2023-03-31T05:15:09;8.75;;;3.33;;
27127;SDS011;14660;49.008;8.390;2023-03-31T05:17:36;5.90;;;2.90;;
27127;SDS011;14660;49.008;8.390;2023-03-31T05:20:05;5.82;;;3.10;;
27127;SDS011;14660;49.008;8.390;2023-03-31T05:22:36;4.60;;;2.67;;
27127;SDS011;14660;49.008;8.390;2023-03-31T05:25:05;5.60;;;3.20;;
27127;SDS011;14660;49.008;8.390;2023-03-31T05:27:33;5.38;;;3.28;;
27127;SDS011;14660;49.008;8.390;2023-03-31T05:30:02;9.30;;;3.50;;
27127;SDS011;14660;49.008;8.390;2023-03-31T05:32:29;8.82;;;3.40;;
27127;SDS011;14660;49.008;8.390;2023-03-31T05:34:56;10.00;;;4.25;;
27127;SDS011;14660;49.008;8.390;2023-03-31T05:37:23;11.68;;;3.25;;
27127;SDS011;14660;49.008;8.390;2023-03-31T05:39:51;6.05;;;3.30;;
27127;SDS011;14660;49.008;8.390;2023-03-31T05:42:19;6.38;;;3.25;;
27127;SDS011;14660;49.008;8.390;2023-03-31T05:44:46;7.65;;;2.97;;
27127;SDS011;14660;49.008;8.390;2023-03-31T05:47:14;5.20;;;2.97;;
27127;SDS011;14660;49.008;8.390;2023-03-31T05:49:42;7.40;;;4.00;;
27127;SDS011;14660;49.008;8.390;2023-03-31T05:52:10;4.80;;;3.38;;
27127;SDS011;14660;49.008;8.390;2023-03-31T05:54:37;9.95;;;4.90;;
27127;SDS011;14660;49.008;8.390;2023-03-31T05:57:06;7.93;;;3.15;;
27127;SDS011;14660;49.008;8.390;2023-03-31T05:59:32;8.18;;;3.72;;
27127;SDS011;14660;49.008;8.390;2023-03-31T06:02:01;9.57;;;3.83;;
27127;SDS011;14660;49.008;8.390;2023-03-31T06:04:29;9.23;;;3.97;;
27127;SDS011;14660;49.008;8.390;2023-03-31T06:06:57;8.38;;;3.90;;
27127;SDS011;14660;49.008;8.390;2023-03-31T06:09:26;6.65;;;3.95;;
27127;SDS011;14660;49.008;8.390;2023-03-31T06:11:52;11.63;;;3.97;;
27127;SDS011;14660;49.008;8.390;2023-03-31T06:14:19;6.65;;;3.45;;
27127;SDS011;14660;49.008;8.390;2023-03-31T06:16:47;6.40;;;3.95;;
27127;SDS011;14660;49.008;8.390;2023-03-31T06:19:24;8.23;;;4.53;;
27127;SDS011;14660;49.008;8.390;2023-03-31T06:21:52;9.90;;;4.55;;
27127;SDS011;14660;49.008;8.390;2023-03-31T06:24:19;12.52;;;4.65;;
27127;SDS011;14660;49.008;8.390;2023-03-31T06:26:51;11.32;;;4.72;;
27127;SDS011;14660;49.008;8.390;2023-03-31T06:29:16;8.82;;;4.45;;
27127;SDS011;14660;49.008;8.390;2023-03-31T06:31:44;5.22;;;3.40;;
27127;SDS011;14660;49.008;8.390;2023-03-31T06:34:11;11.05;;;4.60;;
27127;SDS011;14660;49.008;8.390;2023-03-31T06:36:41;9.32;;;4.18;;
27127;SDS011;14660;49.008;8.390;2023-03-31T06:39:08;10.80;;;4.30;;
27127;SDS011;14660;49.008;8.390;2023-03-31T06:41:35;6.68;;;4.32;;
27127;SDS011;14660;49.008;8.390;2023-03-31T06:44:04;9.88;;;4.55;;
27127;SDS011;14660;49.008;8.390;2023-03-31T06:46:31;10.02;;;5.28;;
27127;SDS011;14660;49.008;8.390;2023-03-31T06:48:58;7.20;;;4.25;;
27127;SDS011;14660;49.008;8.390;2023-03-31T06:51:25;7.13;;;4.00;;
27127;SDS011;14660;49.008;8.390;2023-03-31T06:53:52;6.20;;;4.35;;
27127;SDS011;14660;49.008;8.390;2023-03-31T06:56:19;7.32;;;4.78;;
27127;SDS011;14660;49.008;8.390;2023-03-31T06:58:46;10.70;;;4.38;;
27127;SDS011;14660;49.008;8.390;2023-03-31T07:01:14;5.57;;;3.70;;
27127;SDS011;14660;49.008;8.390;2023-03-31T07:03:41;13.00;;;4.30;;
27127;SDS011;14660;49.008;8.390;2023-03-31T07:06:08;7.68;;;3.75;;
27127;SDS011;14660;49.008;8.390;2023-03-31T07:08:35;5.03;;;3.70;;
27127;SDS011;14660;49.008;8.390;2023-03-31T07:11:02;4.75;;;3.17;;
27127;SDS011;14660;49.008;8.390;2023-03-31T07:13:29;8.27;;;3.63;;
27127;SDS011;14660;49.008;8.390;2023-03-31T07:15:55;4.97;;;2.75;;
27127;SDS011;14660;49.008;8.390;2023-03-31T07:18:23;5.13;;;3.38;;
27127;SDS011;14660;49.008;8.390;2023-03-31T07:20:57;4.30;;;2.22;;
27127;SDS011;14660;49.008;8.390;2023-03-31T07:23:26;3.75;;;3.00;;
27127;SDS011;14660;49.008;8.390;2023-03-31T07:25:53;5.43;;;2.70;;
27127;SDS011;14660;49.008;8.390;2023-03-31T07:28:20;3.60;;;2.10;;
27127;SDS011;14660;49.008;8.390;2023-03-31T07:30:45;5.20;;;2.00;;
27127;SDS011;14660;49.008;8.390;2023-03-31T07:33:12;5.10;;;2.13;;
27127;SDS011;14660;49.008;8.390;2023-03-31T07:35:39;5.53;;;1.80;;
27127;SDS011;14660;49.008;8.390;2023-03-31T07:38:08;2.78;;;1.60;;
27127;SDS011;14660;49.008;8.390;2023-03-31T07:40:37;2.75;;;1.58;;
27127;SDS011;14660;49.008;8.390;2023-03-31T07:43:05;5.22;;;1.52;;
27127;SDS011;14660;49.008;8.390;2023-03-31T07:45:32;2.92;;;1.48;;
27127;SDS011;14660;49.008;8.390;2023-03-31T07:47:59;3.78;;;1.17;;
27127;SDS011;14660;49.008;8.390;2023-03-31T07:50:26;4.32;;;1.95;;
27127;SDS011;14660;49.008;8.390;2023-03-31T07:52:53;3.95;;;0.90;;
27127;SDS011;14660;49.008;8.390;2023-03-31T07:55:20;2.05;;;1.05;;
27127;SDS011;14660;49.008;8.390;2023-03-31T07:57:47;2.00;;;1.50;;
27127;SDS011;14660;49.008;8.390;2023-03-31T08:00:16;5.38;;;1.23;;
27127;SDS011;14660;49.008;8.390;2023-03-31T08:02:46;8.52;;;1.45;;
27127;SDS011;14660;49.008;8.390;2023-03-31T08:05:14;3.92;;;1.42;;
27127;SDS011;14660;49.008;8.390;2023-03-31T08:07:44;3.55;;;1.20;;
27127;SDS011;14660;49.008;8.390;2023-03-31T08:10:13;5.30;;;1.23;;
27127;SDS011;14660;49.008;8.390;2023-03-31T08:12:42;2.30;;;1.05;;
27127;SDS011;14660;49.008;8.390;2023-03-31T08:15:11;2.28;;;1.10;;
27127;SDS011;14660;49.008;8.390;2023-03-31T08:17:38;4.18;;;1.08;;
27127;SDS011;14660;49.008;8.390;2023-03-31T08:20:05;2.78;;;1.30;;
27127;SDS011;14660;49.008;8.390;2023-03-31T08:22:32;3.33;;;1.17;;
27127;SDS011;14660;49.008;8.390;2023-03-31T08:24:58;1.85;;;0.90;;
27127;SDS011;14660;49.008;8.390;2023-03-31T08:27:25;2.25;;;1.40;;
27127;SDS011;14660;49.008;8.390;2023-03-31T08:29:52;2.63;;;1.52;;
27127;SDS011;14660;49.008;8.390;2023-03-31T08:32:22;1.92;;;1.23;;
27127;SDS011;14660;49.008;8.390;2023-03-31T08:34:49;4.78;;;1.05;;
27127;SDS011;14660;49.008;8.390;2023-03-31T08:37:16;9.50;;;2.13;;
27127;SDS011;14660;49.008;8.390;2023-03-31T08:39:43;4.05;;;0.98;;
27127;SDS011;14660;49.008;8.390;2023-03-31T08:42:10;6.20;;;1.00;;
27127;SDS011;14660;49.008;8.390;2023-03-31T08:47:46;2.30;;;1.50;;
27127;SDS011;14660;49.008;8.390;2023-03-31T08:50:18;4.97;;;1.20;;
27127;SDS011;14660;49.008;8.390;2023-03-31T08:53:33;3.70;;;1.15;;
27127;SDS011;14660;49.008;8.390;2023-03-31T08:55:52;4.07;;;1.27;;
27127;SDS011;14660;49.008;8.390;2023-03-31T09:10:38;3.00;;;1.10;;
27127;SDS011;14660;49.008;8.390;2023-03-31T09:16:41;2.90;;;1.13;;
27127;SDS011;14660;49.008;8.390;2023-03-31T09:19:23;2.33;;;0.77;;
27127;SDS011;14660;49.008;8.390;2023-03-31T09:22:19;3.43;;;1.53;;
27127;SDS011;14660;49.008;8.390;2023-03-31T09:24:58;5.28;;;1.10;;
27127;SDS011;14660;49.008;8.390;2023-03-31T09:27:27;4.20;;;1.80;;
27127;SDS011;14660;49.008;8.390;2023-03-31T09:33:14;5.00;;;1.27;;
27127;SDS011;14660;49.008;8.390;2023-03-31T09:36:00;5.10;;;2.25;;
27127;SDS011;14660;49.008;8.390;2023-03-31T09:38:34;8.13;;;1.20;;
27127;SDS011;14660;49.008;8.390;2023-03-31T09:41:01;4.85;;;1.42;;
27127;SDS011;14660;49.008;8.390;2023-03-31T09:43:30;6.10;;;1.30;;
27127;SDS011;14660;49.008;8.390;2023-03-31T09:46:00;4.22;;;1.55;;
27127;SDS011;14660;49.008;8.390;2023-03-31T09:48:29;5.30;;;2.05;;
27127;SDS011;14660;49.008;8.390;2023-03-31T09:51:02;3.20;;;1.52;;
27127;SDS011;14660;49.008;8.390;2023-03-31T09:53:42;10.90;;;1.70;;
27127;SDS011;14660;49.008;8.390;2023-03-31T09:57:02;7.18;;;1.83;;
27127;SDS011;14660;49.008;8.390;2023-03-31T09:59:17;6.85;;;1.77;;
27127;SDS011;14660;49.008;8.390;2023-03-31T10:01:48;8.25;;;1.67;;
27127;SDS011;14660;49.008;8.390;2023-03-31T10:04:23;5.90;;;1.60;;
27127;SDS011;14660;49.008;8.390;2023-03-31T10:06:52;5.10;;;1.45;;
27127;SDS011;14660;49.008;8.390;2023-03-31T10:09:23;6.80;;;2.30;;
27127;SDS011;14660;49.008;8.390;2023-03-31T10:11:58;4.00;;;1.25;;
27127;SDS011;14660;49.008;8.390;2023-03-31T10:14:38;4.22;;;1.50;;
27127;SDS011;14660;49.008;8.390;2023-03-31T10:17:17;4.85;;;1.35;;
27127;SDS011;14660;49.008;8.390;2023-03-31T10:19:48;8.13;;;2.38;;
27127;SDS011;14660;49.008;8.390;2023-03-31T10:22:26;10.30;;;2.08;;
27127;SDS011;14660;49.008;8.390;2023-03-31T10:25:19;8.45;;;1.75;;
27127;SDS011;14660;49.008;8.390;2023-03-31T10:27:52;7.00;;;1.88;;
27127;SDS011;14660;49.008;8.390;2023-03-31T10:30:22;5.20;;;1.43;;
27127;SDS011;14660;49.008;8.390;2023-03-31T10:32:59;6.97;;;2.45;;
27127;SDS011;14660;49.008;8.390;2023-03-31T10:35:32;4.53;;;1.25;;
27127;SDS011;14660;49.008;8.390;2023-03-31T10:38:02;6.50;;;1.90;;
27127;SDS011;14660;49.008;8.390;2023-03-31T10:40:38;5.55;;;1.30;;
27127;SDS011;14660;49.008;8.390;2023-03-31T10:46:14;13.70;;;2.85;;
27127;SDS011;14660;49.008;8.390;2023-03-31T10:48:41;6.35;;;2.13;;
27127;SDS011;14660;49.008;8.390;2023-03-31T10:53:55;4.13;;;0.98;;
27127;SDS011;14660;49.008;8.390;2023-03-31T11:05:19;3.47;;;1.27;;
27127;SDS011;14660;49.008;8.390;2023-03-31T11:11:05;2.67;;;0.30;;
27127;SDS011;14660;49.008;8.390;2023-03-31T11:13:59;1.17;;;0.20;;
27127;SDS011;14660;49.008;8.390;2023-03-31T11:25:45;3.33;;;0.77;;
27127;SDS011;14660;49.008;8.390;2023-03-31T11:43:37;2.42;;;0.30;;
27127;SDS011;14660;49.008;8.390;2023-03-31T11:49:03;0.63;;;0.20;;
27127;SDS011;14660;49.008;8.390;2023-03-31T11:55:06;1.75;;;0.28;;
27127;SDS011;14660;49.008;8.390;2023-03-31T12:06:19;1.05;;;0.30;;
27127;SDS011;14660;49.008;8.390;2023-03-31T12:18:02;0.93;;;0.30;;
27127;SDS011;14660;49.008;8.390;2023-03-31T12:23:40;1.15;;;0.63;;
27127;SDS011;14660;49.008;8.390;2023-03-31T12:32:18;1.57;;;0.70;;
27127;SDS011;14660;49.008;8.390;2023-03-31T12:38:09;2.45;;;0.30;;
27127;SDS011;14660;49.008;8.390;2023-03-31T12:41:19;2.10;;;0.60;;
27127;SDS011;14660;49.008;8.390;2023-03-31T12:56:25;1.52;;;0.40;;
27127;SDS011;14660;49.008;8.390;2023-03-31T12:58:51;1.77;;;0.40;;
27127;SDS011;14660;49.008;8.390;2023-03-31T13:04:26;4.00;;;0.70;;
27127;SDS011;14660;49.008;8.390;2023-03-31T13:06:54;2.25;;;0.80;;
27127;SDS011;14660;49.008;8.390;2023-03-31T13:12:13;4.68;;;1.38;;
27127;SDS011;14660;49.008;8.390;2023-03-31T13:14:43;1.52;;;0.90;;
27127;SDS011;14660;49.008;8.390;2023-03-31T13:20:14;2.70;;;1.05;;
27127;SDS011;14660;49.008;8.390;2023-03-31T13:22:42;2.17;;;0.85;;
27127;SDS011;14660;49.008;8.390;2023-03-31T13:28:26;1.63;;;0.57;;
27127;SDS011;14660;49.008;8.390;2023-03-31T13:31:13;5.25;;;1.13;;
27127;SDS011;14660;49.008;8.390;2023-03-31T14:03:04;4.22;;;1.65;;
27127;SDS011;14660;49.008;8.390;2023-03-31T14:14:15;3.45;;;0.55;;
27127;SDS011;14660;49.008;8.390;2023-03-31T14:16:52;1.52;;;0.75;;
27127;SDS011;14660;49.008;8.390;2023-03-31T14:39:31;3.92;;;0.60;;
27127;SDS011;14660;49.008;8.390;2023-03-31T14:42:04;1.80;;;0.30;;
27127;SDS011;14660;49.008;8.390;2023-03-31T14:44:36;1.42;;;0.40;;
27127;SDS011;14660;49.008;8.390;2023-03-31T14:47:19;1.45;;;0.60;;
27127;SDS011;14660;49.008;8.390;2023-03-31T14:49:57;0.85;;;0.30;;
27127;SDS011;14660;49.008;8.390;2023-03-31T14:52:40;1.92;;;1.15;;
27127;SDS011;14660;49.008;8.390;2023-03-31T14:55:21;1.73;;;0.50;;
27127;SDS011;14660;49.008;8.390;2023-03-31T14:57:51;1.92;;;0.50;;
27127;SDS011;14660;49.008;8.390;2023-03-31T15:00:24;2.58;;;0.45;;
27127;SDS011;14660;49.008;8.390;2023-03-31T15:03:04;5.85;;;0.75;;
27127;SDS011;14660;49.008;8.390;2023-03-31T15:05:39;2.10;;;0.65;;
27127;SDS011;14660;49.008;8.390;2023-03-31T15:08:12;2.17;;;1.23;;
27127;SDS011;14660;49.008;8.390;2023-03-31T15:10:43;2.38;;;0.82;;
27127;SDS011;14660;49.008;8.390;2023-03-31T15:13:20;5.47;;;1.58;;
27127;SDS011;14660;49.008;8.390;2023-03-31T15:15:50;4.00;;;1.00;;
27127;SDS011;14660;49.008;8.390;2023-03-31T15:18:17;3.42;;;0.88;;
27127;SDS011;14660;49.008;8.390;2023-03-31T15:20:43;2.80;;;0.65;;
27127;SDS011;14660;49.008;8.390;2023-03-31T15:23:18;2.35;;;0.90;;
27127;SDS011;14660;49.008;8.390;2023-03-31T15:25:54;2.42;;;0.65;;
27127;SDS011;14660;49.008;8.390;2023-03-31T15:28:25;2.97;;;0.55;;
27127;SDS011;14660;49.008;8.390;2023-03-31T15:30:56;3.72;;;0.73;;
27127;SDS011;14660;49.008;8.390;2023-03-31T15:33:26;3.80;;;0.98;;
27127;SDS011;14660;49.008;8.390;2023-03-31T15:35:56;5.93;;;0.98;;
27127;SDS011;14660;49.008;8.390;2023-03-31T15:38:24;2.63;;;0.75;;
27127;SDS011;14660;49.008;8.390;2023-03-31T15:40:54;2.33;;;1.10;;
27127;SDS011;14660;49.008;8.390;2023-03-31T15:43:31;4.03;;;0.80;;
27127;SDS011;14660;49.008;8.390;2023-03-31T15:46:58;8.82;;;1.13;;
27127;SDS011;14660;49.008;8.390;2023-03-31T15:49:19;5.55;;;1.10;;
27127;SDS011;14660;49.008;8.390;2023-03-31T15:51:50;3.67;;;0.68;;
27127;SDS011;14660;49.008;8.390;2023-03-31T15:57:05;2.53;;;1.17;;
27127;SDS011;14660;49.008;8.390;2023-03-31T15:59:55;2.38;;;0.40;;
27127;SDS011;14660;49.008;8.390;2023-03-31T16:02:25;0.80;;;0.55;;
27127;SDS011;14660;49.008;8.390;2023-03-31T16:05:02;2.55;;;0.93;;
27127;SDS011;14660;49.008;8.390;2023-03-31T16:07:31;2.47;;;0.40;;
27127;SDS011;14660;49.008;8.390;2023-03-31T16:13:02;2.03;;;0.43;;
27127;SDS011;14660;49.008;8.390;2023-03-31T16:15:39;0.68;;;0.30;;
27127;SDS011;14660;49.008;8.390;2023-03-31T16:18:39;0.95;;;0.50;;
27127;SDS011;14660;49.008;8.390;2023-03-31T16:21:07;1.90;;;0.30;;
27127;SDS011;14660;49.008;8.390;2023-03-31T16:23:38;1.98;;;0.38;;
27127;SDS011;14660;49.008;8.390;2023-03-31T16:26:06;2.50;;;0.85;;
27127;SDS011;14660;49.008;8.390;2023-03-31T16:28:34;0.65;;;0.20;;
27127;SDS011;14660;49.008;8.390;2023-03-31T16:31:03;1.90;;;0.40;;
27127;SDS011;14660;49.008;8.390;2023-03-31T16:33:50;0.80;;;0.30;;
27127;SDS011;14660;49.008;8.390;2023-03-31T16:36:20;2.70;;;0.60;;
27127;SDS011;14660;49.008;8.390;2023-03-31T16:38:50;3.40;;;0.55;;
27127;SDS011;14660;49.008;8.390;2023-03-31T16:41:17;3.38;;;0.70;;
27127;SDS011;14660;49.008;8.390;2023-03-31T16:43:46;0.85;;;0.35;;
27127;SDS011;14660;49.008;8.390;2023-03-31T16:46:14;4.47;;;0.65;;
27127;SDS011;14660;49.008;8.390;2023-03-31T16:48:41;1.23;;;0.45;;
27127;SDS011;14660;49.008;8.390;2023-03-31T16:51:08;8.23;;;0.73;;
27127;SDS011;14660;49.008;8.390;2023-03-31T16:53:35;1.02;;;0.35;;
27127;SDS011;14660;49.008;8.390;2023-03-31T16:56:03;1.42;;;0.75;;
27127;SDS011;14660;49.008;8.390;2023-03-31T16:58:33;1.10;;;0.85;;
27127;SDS011;14660;49.008;8.390;2023-03-31T17:01:01;0.93;;;0.65;;
27127;SDS011;14660;49.008;8.390;2023-03-31T17:03:29;4.82;;;2.28;;
27127;SDS011;14660;49.008;8.390;2023-03-31T17:05:57;5.15;;;1.10;;
27127;SDS011;14660;49.008;8.390;2023-03-31T17:08:29;2.67;;;0.40;;
27127;SDS011;14660;49.008;8.390;2023-03-31T17:13:42;0.73;;;0.40;;
27127;SDS011;14660;49.008;8.390;2023-03-31T17:16:10;5.85;;;0.70;;
27127;SDS011;14660;49.008;8.390;2023-03-31T17:18:37;1.95;;;0.45;;
27127;SDS011;14660;49.008;8.390;2023-03-31T17:21:06;2.63;;;0.90;;
27127;SDS011;14660;49.008;8.390;2023-03-31T17:23:33;1.42;;;0.45;;
27127;SDS011;14660;49.008;8.390;2023-03-31T17:26:01;2.25;;;0.60;;
27127;SDS011;14660;49.008;8.390;2023-03-31T17:28:29;1.73;;;0.45;;
27127;SDS011;14660;49.008;8.390;2023-03-31T17:30:58;2.80;;;0.60;;
27127;SDS011;14660;49.008;8.390;2023-03-31T17:33:25;3.63;;;0.60;;
27127;SDS011;14660;49.008;8.390;2023-03-31T17:35:59;1.40;;;0.93;;
27127;SDS011;14660;49.008;8.390;2023-03-31T17:40:53;2.80;;;0.50;;
27127;SDS011;14660;49.008;8.390;2023-03-31T17:43:21;0.80;;;0.50;;
27127;SDS011;14660;49.008;8.390;2023-03-31T17:45:48;1.23;;;0.30;;
27127;SDS011;14660;49.008;8.390;2023-03-31T17:48:14;0.95;;;0.30;;
27127;SDS011;14660;49.008;8.390;2023-03-31T17:50:42;3.50;;;0.65;;
27127;SDS011;14660;49.008;8.390;2023-03-31T17:53:07;5.90;;;0.60;;
27127;SDS011;14660;49.008;8.390;2023-03-31T17:55:36;2.30;;;0.70;;
27127;SDS011;14660;49.008;8.390;2023-03-31T17:58:03;1.67;;;0.85;;
27127;SDS011;14660;49.008;8.390;2023-03-31T18:00:31;2.45;;;0.60;;
27127;SDS011;14660;49.008;8.390;2023-03-31T18:02:59;1.17;;;0.50;;
27127;SDS011;14660;49.008;8.390;2023-03-31T18:05:25;3.38;;;0.50;;
27127;SDS011;14660;49.008;8.390;2023-03-31T18:07:53;1.60;;;0.70;;
27127;SDS011;14660;49.008;8.390;2023-03-31T18:10:20;1.50;;;0.90;;
27127;SDS011;14660;49.008;8.390;2023-03-31T18:12:48;4.90;;;1.20;;
27127;SDS011;14660;49.008;8.390;2023-03-31T18:15:15;3.60;;;0.90;;
27127;SDS011;14660;49.008;8.390;2023-03-31T18:17:42;4.25;;;0.55;;
27127;SDS011;14660;49.008;8.390;2023-03-31T18:20:09;4.22;;;1.00;;
27127;SDS011;14660;49.008;8.390;2023-03-31T18:22:36;3.10;;;0.93;;
27127;SDS011;14660;49.008;8.390;2023-03-31T18:25:02;2.88;;;0.90;;
27127;SDS011;14660;49.008;8.390;2023-03-31T18:27:29;2.65;;;0.88;;
27127;SDS011;14660;49.008;8.390;2023-03-31T18:29:56;3.60;;;1.00;;
27127;SDS011;14660;49.008;8.390;2023-03-31T18:32:23;1.50;;;0.70;;
27127;SDS011;14660;49.008;8.390;2023-03-31T18:34:50;3.53;;;0.88;;
27127;SDS011;14660;49.008;8.390;2023-03-31T18:37:17;3.33;;;0.98;;
27127;SDS011;14660;49.008;8.390;2023-03-31T18:39:44;2.92;;;1.35;;
27127;SDS011;14660;49.008;8.390;2023-03-31T18:42:11;4.30;;;1.30;;
27127;SDS011;14660;49.008;8.390;2023-03-31T18:44:38;3.47;;;1.15;;
27127;SDS011;14660;49.008;8.390;2023-03-31T18:47:04;3.92;;;1.00;;
27127;SDS011;14660;49.008;8.390;2023-03-31T18:49:32;1.13;;;0.57;;
27127;SDS011;14660;49.008;8.390;2023-03-31T18:51:58;2.03;;;0.82;;
27127;SDS011;14660;49.008;8.390;2023-03-31T18:54:28;2.20;;;0.70;;
27127;SDS011;14660;49.008;8.390;2023-03-31T18:56:57;3.13;;;1.55;;
27127;SDS011;14660;49.008;8.390;2023-03-31T18:59:27;2.38;;;0.80;;
27127;SDS011;14660;49.008;8.390;2023-03-31T19:01:54;1.80;;;0.60;;
27127;SDS011;14660;49.008;8.390;2023-03-31T19:04:21;3.53;;;1.10;;
27127;SDS011;14660;49.008;8.390;2023-03-31T19:06:49;1.85;;;0.60;;
27127;SDS011;14660;49.008;8.390;2023-03-31T19:09:17;2.08;;;0.65;;
27127;SDS011;14660;49.008;8.390;2023-03-31T19:11:48;4.65;;;1.42;;
27127;SDS011;14660;49.008;8.390;2023-03-31T19:14:17;2.20;;;0.82;;
27127;SDS011;14660;49.008;8.390;2023-03-31T19:16:43;2.50;;;0.88;;
27127;SDS011;14660;49.008;8.390;2023-03-31T19:19:11;3.60;;;0.80;;
27127;SDS011;14660;49.008;8.390;2023-03-31T19:21:37;2.65;;;1.17;;
27127;SDS011;14660;49.008;8.390;2023-03-31T19:24:07;3.17;;;1.35;;
27127;SDS011;14660;49.008;8.390;2023-03-31T19:26:34;3.78;;;1.08;;
27127;SDS011;14660;49.008;8.390;2023-03-31T19:29:03;4.22;;;0.98;;
27127;SDS011;14660;49.008;8.390;2023-03-31T19:31:30;2.83;;;1.02;;
27127;SDS011;14660;49.008;8.390;2023-03-31T19:34:04;3.10;;;0.93;;